createdAt,value
2022-12-23T00:00:35.948Z,6.55
2022-12-23T00:03:38.016Z,4.75
2022-12-23T00:06:40.091Z,4.45
2022-12-23T00:09:41.996Z,4.55
2022-12-23T00:12:43.976Z,4.65
2022-12-23T00:15:45.826Z,6.05
2022-12-23T00:18:47.710Z,5.97
2022-12-23T00:21:49.673Z,4.75
2022-12-23T00:24:51.672Z,7.50
2022-12-23T00:27:53.564Z,4.95
2022-12-23T00:31:07.121Z,4.20
2022-12-23T00:34:10.795Z,4.82
2022-12-23T00:37:12.678Z,5.50
2022-12-23T00:40:14.886Z,3.85
2022-12-23T00:43:16.781Z,4.78
2022-12-23T00:46:18.643Z,4.72
2022-12-23T00:49:21.150Z,5.25
2022-12-23T00:52:22.971Z,4.72
2022-12-23T00:55:25.382Z,3.30
2022-12-23T00:58:27.394Z,2.42
2022-12-23T01:01:29.541Z,3.72
2022-12-23T01:04:31.565Z,3.00
2022-12-23T01:07:33.652Z,3.92
2022-12-23T01:10:39.766Z,3.60
2022-12-23T01:13:41.646Z,3.13
2022-12-23T01:16:44.217Z,1.85
2022-12-23T01:22:48.056Z,1.40
2022-12-23T01:25:56.785Z,2.80
2022-12-23T01:28:59.380Z,3.92
2022-12-23T01:35:03.314Z,2.08
2022-12-23T01:38:05.169Z,3.05
2022-12-23T01:41:07.129Z,3.05
2022-12-23T01:44:46.489Z,2.92
2022-12-23T01:47:55.027Z,1.73
2022-12-23T01:51:01.640Z,3.58
2022-12-23T01:54:03.609Z,4.47
2022-12-23T01:57:05.662Z,1.88
2022-12-23T02:00:08.299Z,2.65
2022-12-23T02:03:10.319Z,4.93
2022-12-23T02:06:27.073Z,2.53
2022-12-23T02:09:32.039Z,2.40
2022-12-23T02:13:30.877Z,1.88
2022-12-23T02:16:38.929Z,1.95
2022-12-23T02:19:46.830Z,3.08
2022-12-23T02:23:21.716Z,1.73
2022-12-23T02:26:48.698Z,3.00
2022-12-23T02:30:05.517Z,1.95
2022-12-23T02:33:35.590Z,2.13
2022-12-23T02:37:07.444Z,3.88
2022-12-23T02:40:18.538Z,2.35
2022-12-23T02:43:29.394Z,2.65
2022-12-23T02:46:36.450Z,2.05
2022-12-23T02:49:45.359Z,4.55
2022-12-23T02:52:51.882Z,2.15
2022-12-23T02:55:56.369Z,2.87
2022-12-23T02:59:20.866Z,2.35
2022-12-23T03:02:23.008Z,2.88
2022-12-23T03:05:44.511Z,3.50
2022-12-23T03:08:47.358Z,2.97
2022-12-23T03:12:01.221Z,3.17
2022-12-23T03:15:29.538Z,3.03
2022-12-23T03:18:37.309Z,3.00
2022-12-23T03:22:06.430Z,2.70
2022-12-23T03:25:24.561Z,3.23
2022-12-23T03:28:45.554Z,3.17
2022-12-23T03:31:49.550Z,2.43
2022-12-23T03:34:57.020Z,2.63
2022-12-23T03:38:01.645Z,3.33
2022-12-23T03:41:13.678Z,3.28
2022-12-23T03:44:28.541Z,3.20
2022-12-23T03:47:44.080Z,3.80
2022-12-23T03:50:50.625Z,3.33
2022-12-23T03:53:57.585Z,2.47
2022-12-23T03:57:05.968Z,2.53
2022-12-23T04:00:08.564Z,3.23
2022-12-23T04:03:16.483Z,2.53
2022-12-23T04:06:20.479Z,2.42
2022-12-23T04:09:24.639Z,1.95
2022-12-23T04:12:27.825Z,3.45
2022-12-23T04:15:30.487Z,3.38
2022-12-23T04:18:32.602Z,2.33
2022-12-23T04:21:34.461Z,4.17
2022-12-23T04:24:36.826Z,2.60
2022-12-23T04:27:39.215Z,3.03
2022-12-23T04:30:41.075Z,3.25
2022-12-23T04:33:43.154Z,3.90
2022-12-23T04:36:45.056Z,3.17
2022-12-23T04:39:47.003Z,2.70
2022-12-23T04:42:48.918Z,3.60
2022-12-23T04:45:51.302Z,2.70
2022-12-23T04:48:53.339Z,2.70
2022-12-23T04:51:55.470Z,2.58
2022-12-23T04:54:57.361Z,2.97
2022-12-23T04:57:59.282Z,2.73
2022-12-23T05:01:09.381Z,3.70
2022-12-23T05:04:11.711Z,3.03
2022-12-23T05:07:13.664Z,1.97
2022-12-23T05:10:15.665Z,3.53
2022-12-23T05:13:17.703Z,2.70
2022-12-23T05:16:19.831Z,2.70
2022-12-23T05:19:21.975Z,3.27
2022-12-23T05:22:23.877Z,4.37
2022-12-23T05:25:25.852Z,3.80
2022-12-23T05:28:27.943Z,2.20
2022-12-23T05:31:29.832Z,2.72
2022-12-23T05:34:31.775Z,2.70
2022-12-23T05:37:33.859Z,2.97
2022-12-23T05:40:35.789Z,3.45
2022-12-23T05:43:37.923Z,2.50
2022-12-23T05:46:39.945Z,2.47
2022-12-23T05:49:41.926Z,3.20
2022-12-23T05:52:44.387Z,2.72
2022-12-23T05:55:46.779Z,3.15
2022-12-23T05:58:48.847Z,3.00
2022-12-23T06:01:54.403Z,3.20
2022-12-23T06:04:56.355Z,2.47
2022-12-23T06:07:58.284Z,2.60
2022-12-23T06:11:00.226Z,2.83
2022-12-23T06:14:02.209Z,3.72
2022-12-23T06:17:04.215Z,3.00
2022-12-23T06:20:06.959Z,3.45
2022-12-23T06:23:08.960Z,3.30
2022-12-23T06:26:11.018Z,2.63
2022-12-23T06:29:15.377Z,3.23
2022-12-23T06:32:17.331Z,2.83
2022-12-23T06:35:19.293Z,3.58
2022-12-23T06:38:21.530Z,2.97
2022-12-23T06:41:23.589Z,2.90
2022-12-23T06:44:25.550Z,5.28
2022-12-23T06:47:27.415Z,5.17
2022-12-23T06:50:31.600Z,5.17
2022-12-23T06:53:33.471Z,4.10
2022-12-23T06:56:35.402Z,3.00
2022-12-23T06:59:37.273Z,3.03
2022-12-23T07:02:39.290Z,2.97
2022-12-23T07:05:41.288Z,5.55
2022-12-23T07:08:45.678Z,3.58
2022-12-23T07:11:47.667Z,2.88
2022-12-23T07:14:49.579Z,3.65
2022-12-23T07:17:51.515Z,4.18
2022-12-23T07:20:53.646Z,6.55
2022-12-23T07:23:56.312Z,6.77
2022-12-23T07:26:58.219Z,5.38
2022-12-23T07:30:00.143Z,4.68
2022-12-23T07:33:02.416Z,3.45
2022-12-23T07:36:04.898Z,5.18
2022-12-23T07:39:06.839Z,4.37
2022-12-23T07:42:42.735Z,4.37
2022-12-23T07:45:30.825Z,5.53
2022-12-23T07:48:32.766Z,3.45
2022-12-23T07:51:34.826Z,5.18
2022-12-23T07:54:36.926Z,5.75
2022-12-23T07:57:39.036Z,7.07
2022-12-23T08:00:41.151Z,6.78
2022-12-23T08:03:43.227Z,8.52
2022-12-23T08:06:45.248Z,5.43
2022-12-23T08:09:47.181Z,3.88
2022-12-23T08:12:49.139Z,4.18
2022-12-23T08:15:58.384Z,3.90
2022-12-23T08:19:00.320Z,4.40
2022-12-23T08:22:02.246Z,4.22
2022-12-23T08:25:04.815Z,4.50
2022-12-23T08:28:06.705Z,4.53
2022-12-23T08:31:20.398Z,4.70
2022-12-23T08:34:22.483Z,5.03
2022-12-23T08:37:24.900Z,4.13
2022-12-23T08:40:26.862Z,5.05
2022-12-23T08:43:35.288Z,5.25
2022-12-23T08:46:38.724Z,5.10
2022-12-23T08:49:40.742Z,3.87
2022-12-23T08:52:44.879Z,4.05
2022-12-23T08:55:47.947Z,3.17
2022-12-23T08:58:51.861Z,3.92
2022-12-23T09:01:53.884Z,3.85
2022-12-23T09:04:55.862Z,2.90
2022-12-23T09:07:57.890Z,3.58
2022-12-23T09:11:00.817Z,4.67
2022-12-23T09:14:03.826Z,4.47
2022-12-23T09:17:05.770Z,4.03
2022-12-23T09:20:08.406Z,3.67
2022-12-23T09:23:10.398Z,3.28
2022-12-23T09:26:20.229Z,3.97
2022-12-23T09:29:22.164Z,3.93
2022-12-23T09:32:26.460Z,3.73
2022-12-23T09:35:28.309Z,3.63
2022-12-23T09:38:30.520Z,3.20
2022-12-23T09:42:14.444Z,3.07
2022-12-23T09:45:22.537Z,3.10
2022-12-23T09:48:28.716Z,3.42
2022-12-23T09:51:32.814Z,3.60
2022-12-23T09:54:54.418Z,3.30
2022-12-23T09:58:00.416Z,3.30
2022-12-23T10:01:02.314Z,4.50
2022-12-23T10:04:23.360Z,3.35
2022-12-23T10:07:55.967Z,4.10
2022-12-23T10:11:28.170Z,3.87
2022-12-23T10:14:32.043Z,3.28
2022-12-23T10:17:41.095Z,4.30
2022-12-23T10:21:05.229Z,4.78
2022-12-23T10:24:24.197Z,4.20
2022-12-23T10:27:38.903Z,4.63
2022-12-23T10:34:21.267Z,4.80
2022-12-23T10:37:45.548Z,5.40
2022-12-23T10:41:07.061Z,5.40
2022-12-23T10:44:48.702Z,5.53
2022-12-23T10:48:32.814Z,4.57
2022-12-23T10:51:45.507Z,3.78
2022-12-23T10:54:48.337Z,3.53
2022-12-23T10:57:52.323Z,4.60
2022-12-23T11:00:58.679Z,5.07
2022-12-23T11:04:08.335Z,4.30
2022-12-23T11:07:43.491Z,3.77
2022-12-23T11:10:40.470Z,4.10
2022-12-23T11:13:45.313Z,4.67
2022-12-23T11:16:47.305Z,4.38
2022-12-23T11:20:14.814Z,3.40
2022-12-23T11:23:27.609Z,3.03
2022-12-23T11:26:29.687Z,4.72
2022-12-23T11:29:36.105Z,4.18
2022-12-23T11:32:38.763Z,3.70
2022-12-23T11:35:40.780Z,3.65
2022-12-23T11:39:10.618Z,4.38
2022-12-23T11:42:17.397Z,3.22
2022-12-23T11:45:24.718Z,4.00
2022-12-23T11:48:29.328Z,3.53
2022-12-23T12:03:32.055Z,3.75
2022-12-23T12:06:34.828Z,4.32
2022-12-23T12:09:41.032Z,3.90
2022-12-23T12:12:43.384Z,4.10
2022-12-23T12:16:06.032Z,4.40
2022-12-23T12:19:31.903Z,3.97
2022-12-23T12:22:48.124Z,2.63
2022-12-23T12:26:02.034Z,3.58
2022-12-23T12:29:23.767Z,4.05
2022-12-23T12:32:53.850Z,4.43
2022-12-23T12:36:05.609Z,4.82
2022-12-23T12:39:15.772Z,4.30
2022-12-23T12:42:21.140Z,4.82
2022-12-23T12:45:25.056Z,4.93
2022-12-23T12:48:45.912Z,4.65
2022-12-23T12:52:12.179Z,4.50
2022-12-23T12:55:28.684Z,4.53
2022-12-23T12:58:30.591Z,4.65
2022-12-23T13:01:45.436Z,4.90
2022-12-23T13:05:05.367Z,4.10
2022-12-23T13:08:36.843Z,5.13
2022-12-23T13:11:54.132Z,4.10
2022-12-23T13:15:32.132Z,4.57
2022-12-23T13:18:50.031Z,4.67
2022-12-23T13:22:17.274Z,4.45
2022-12-23T13:25:26.936Z,3.90
2022-12-23T13:28:44.127Z,4.78
2022-12-23T13:31:57.369Z,5.43
2022-12-23T13:35:11.057Z,4.50
2022-12-23T13:38:50.158Z,4.50
2022-12-23T13:41:58.491Z,3.77
2022-12-23T13:45:05.772Z,4.55
2022-12-23T13:48:40.686Z,6.10
2022-12-23T13:51:56.810Z,4.82
2022-12-23T13:55:26.500Z,3.60
2022-12-23T13:58:30.042Z,4.93
2022-12-23T14:01:36.151Z,4.63
2022-12-23T14:04:58.594Z,4.82
2022-12-23T14:08:03.942Z,4.47
2022-12-23T14:11:29.140Z,5.25
2022-12-23T14:14:31.715Z,4.72
2022-12-23T14:18:04.282Z,4.60
2022-12-23T14:21:37.916Z,5.35
2022-12-23T14:25:17.367Z,4.50
2022-12-23T14:28:56.606Z,3.60
2022-12-23T14:31:59.418Z,3.55
2022-12-23T14:35:20.142Z,3.63
2022-12-23T14:38:28.010Z,3.80
2022-12-23T14:41:50.431Z,3.83
2022-12-23T14:44:52.637Z,3.85
2022-12-23T14:47:54.540Z,2.70
2022-12-23T14:51:10.002Z,3.10
2022-12-23T14:54:16.020Z,3.97
2022-12-23T14:57:22.145Z,4.20
2022-12-23T15:00:24.105Z,3.23
2022-12-23T15:03:35.092Z,3.60
2022-12-23T15:06:53.517Z,3.78
2022-12-23T15:10:01.864Z,3.83
2022-12-23T15:13:14.205Z,4.40
2022-12-23T15:16:19.665Z,3.45
2022-12-23T15:19:28.143Z,4.80
2022-12-23T15:22:33.850Z,3.78
2022-12-23T15:29:01.371Z,4.72
2022-12-23T15:32:04.669Z,3.07
2022-12-23T15:35:31.813Z,3.90
2022-12-23T15:38:37.468Z,3.30
2022-12-23T15:41:44.085Z,4.00
2022-12-23T15:44:46.558Z,4.32
2022-12-23T15:47:48.521Z,4.57
2022-12-23T15:54:04.451Z,3.50
2022-12-23T15:57:06.564Z,4.07
2022-12-23T16:00:19.738Z,4.00
2022-12-23T16:03:37.570Z,3.25
2022-12-23T16:06:39.588Z,3.90
2022-12-23T16:09:41.535Z,4.40
2022-12-23T16:12:44.050Z,3.60
2022-12-23T16:15:46.589Z,3.70
2022-12-23T16:18:48.750Z,3.47
2022-12-23T16:21:51.066Z,2.63
2022-12-23T16:25:22.999Z,2.85
2022-12-23T16:28:35.096Z,4.37
2022-12-23T16:31:37.868Z,3.47
2022-12-23T16:34:40.124Z,4.38
2022-12-23T16:37:49.316Z,3.83
2022-12-23T16:40:56.037Z,2.92
2022-12-23T16:43:57.969Z,3.22
2022-12-23T16:47:06.959Z,3.10
2022-12-23T16:50:14.339Z,2.72
2022-12-23T16:53:23.367Z,2.90
2022-12-23T16:56:33.148Z,3.47
2022-12-23T16:59:36.446Z,3.30
2022-12-23T17:02:39.127Z,3.40
2022-12-23T17:05:41.082Z,3.20
2022-12-23T17:08:43.327Z,3.88
2022-12-23T17:11:49.132Z,3.90
2022-12-23T17:15:00.186Z,2.97
2022-12-23T17:18:02.557Z,3.25
2022-12-23T17:24:26.427Z,3.97
2022-12-23T17:27:28.859Z,3.97
2022-12-23T17:30:32.519Z,3.40
2022-12-23T17:33:34.868Z,4.25
2022-12-23T17:39:45.783Z,3.60
2022-12-23T17:42:48.601Z,2.50
2022-12-23T17:45:50.962Z,2.78
2022-12-23T17:48:53.379Z,3.17
2022-12-23T17:51:57.431Z,2.03
2022-12-23T17:54:59.488Z,2.20
2022-12-23T17:58:04.002Z,3.03
2022-12-23T18:01:06.810Z,1.93
2022-12-23T18:04:08.943Z,1.93
2022-12-23T18:07:15.251Z,1.95
2022-12-23T18:10:20.160Z,2.80
2022-12-23T18:13:22.114Z,3.03
2022-12-23T18:16:24.256Z,3.33
2022-12-23T18:19:26.497Z,3.35
2022-12-23T18:22:31.193Z,2.92
2022-12-23T18:25:34.287Z,3.28
2022-12-23T18:28:36.173Z,3.40
2022-12-23T18:31:50.218Z,3.40
2022-12-23T18:34:57.345Z,4.13
2022-12-23T18:38:00.144Z,4.25
2022-12-23T18:41:11.699Z,4.18
2022-12-23T18:44:20.948Z,4.23
2022-12-23T18:47:29.086Z,4.70
2022-12-23T18:50:32.254Z,4.97
2022-12-23T18:53:34.293Z,4.40
2022-12-23T18:56:37.651Z,4.90
2022-12-23T18:59:39.626Z,3.70
2022-12-23T19:02:42.422Z,2.83
2022-12-23T19:05:50.931Z,4.85
2022-12-23T19:08:53.122Z,4.05
2022-12-23T19:11:58.154Z,3.45
2022-12-23T19:15:00.287Z,2.70
2022-12-23T19:18:02.254Z,3.33
2022-12-23T19:21:06.060Z,3.30
2022-12-23T19:24:14.141Z,2.42
2022-12-23T19:27:16.013Z,3.47
2022-12-23T19:30:18.605Z,4.10
2022-12-23T19:33:24.247Z,4.75
2022-12-23T19:36:26.274Z,4.73
2022-12-23T19:39:28.275Z,2.73
2022-12-23T19:42:41.622Z,4.53
2022-12-23T19:45:43.639Z,3.30
2022-12-23T19:48:51.569Z,5.20
2022-12-23T19:51:53.622Z,4.23
2022-12-23T19:54:55.537Z,4.10
2022-12-23T19:57:57.821Z,4.83
2022-12-23T20:01:12.426Z,4.43
2022-12-23T20:04:14.440Z,5.65
2022-12-23T20:07:16.719Z,5.22
2022-12-23T20:10:18.714Z,4.32
2022-12-23T20:13:23.468Z,7.60
2022-12-23T20:16:30.471Z,5.78
2022-12-23T20:19:33.109Z,4.97
2022-12-23T20:22:35.148Z,6.65
2022-12-23T20:25:37.121Z,5.15
2022-12-23T20:28:40.987Z,5.53
2022-12-23T20:31:46.363Z,3.90
2022-12-23T20:34:48.497Z,5.77
2022-12-23T20:37:50.927Z,6.07
2022-12-23T20:40:53.016Z,4.25
2022-12-23T20:47:30.105Z,4.70
2022-12-23T20:50:32.034Z,4.87
2022-12-23T20:53:34.811Z,4.55
2022-12-23T20:56:36.713Z,4.03
2022-12-23T20:59:38.592Z,4.05
2022-12-23T21:02:41.494Z,4.07
2022-12-23T21:05:43.724Z,4.53
2022-12-23T21:08:45.708Z,4.90
2022-12-23T21:11:48.113Z,4.10
2022-12-23T21:14:50.018Z,3.85
2022-12-23T21:17:58.682Z,5.25
2022-12-23T21:21:04.213Z,6.55
2022-12-23T21:24:06.509Z,9.30
2022-12-23T21:27:08.417Z,11.00
2022-12-23T21:30:10.805Z,5.70
2022-12-23T21:33:12.861Z,8.55
2022-12-23T21:36:20.696Z,7.80
2022-12-23T21:39:22.892Z,5.28
2022-12-23T21:42:24.924Z,5.40
2022-12-23T21:45:29.763Z,6.35
2022-12-23T21:48:33.870Z,7.53
2022-12-23T21:51:39.982Z,6.22
2022-12-23T21:54:42.415Z,6.80
2022-12-23T21:57:47.091Z,5.85
2022-12-23T22:00:49.204Z,5.95
2022-12-23T22:03:54.289Z,8.93
2022-12-23T22:10:03.533Z,5.40
2022-12-23T22:13:06.457Z,7.20
2022-12-23T22:16:20.488Z,8.35
2022-12-23T22:19:22.465Z,7.28
2022-12-23T22:22:24.437Z,6.90
2022-12-23T22:25:26.292Z,6.17
2022-12-23T22:28:30.803Z,7.38
2022-12-23T22:31:52.862Z,6.95
2022-12-23T22:34:54.928Z,10.48
2022-12-23T22:37:56.863Z,9.63
2022-12-23T22:40:58.723Z,7.50
2022-12-23T22:44:00.766Z,8.02
2022-12-23T22:47:02.991Z,7.23
2022-12-23T22:50:05.599Z,8.97
2022-12-23T22:53:07.553Z,9.82
2022-12-23T22:56:12.702Z,8.13
2022-12-23T22:59:23.911Z,8.20
2022-12-23T23:02:26.277Z,9.60
2022-12-23T23:05:28.316Z,14.02
2022-12-23T23:08:30.908Z,13.80
2022-12-23T23:11:40.239Z,8.88
2022-12-23T23:14:42.153Z,10.93
2022-12-23T23:17:44.068Z,10.32
2022-12-23T23:20:47.353Z,10.73
2022-12-23T23:23:49.804Z,9.70
2022-12-23T23:26:52.456Z,9.73
2022-12-23T23:29:56.943Z,9.63
2022-12-23T23:32:58.967Z,9.03
2022-12-23T23:36:00.888Z,7.53
2022-12-23T23:39:02.933Z,7.70
2022-12-23T23:42:05.007Z,11.82
2022-12-23T23:45:07.994Z,10.43
2022-12-23T23:48:12.976Z,6.55
2022-12-23T23:51:14.957Z,7.32
2022-12-23T23:54:20.556Z,8.90
2022-12-23T23:57:23.157Z,8.50
